Amunt
Inicio > meteoXarxa
Fes-te'n soci

METEOXARXA

Traiguera
Ubicació
Comarca el Baix Maestrat
Altitud (msnm)
Posició geogràfica 40° 31' 22.03" N, 00° 17' 17.02" E
Model Davis Vantage VUE
Presa de dades
Font de les dades Ajuntament de Traiguera
Estadístiques. Resum
Data Temperatura (ºC) Humitat (%) Pressió (hPa) Vent (km/h) Precipit. (mm)
Mínima Mitjana Màxima Mínima Mitjana Màxima Mínima Mitjana Màxima Predom. Mitjana Ràfega màxima Total Dies de pluja
Mínima Mitjana Màxima Mínima Mitjana Màxima
Últimes dades diàries
25-03-2017 6,0     10,6     17,0 W 4,5 37,0 0,0  
24-03-2017 5,7     9,0     12,0 N 3,9 20,9 0,0  
23-03-2017 4,9     9,7     15,0 NNW 5,6 30,6 0,0  
22-03-2017 8,9     12,8     16,7 SE 4,3 24,1 0,0  
21-03-2017 9,3     13,8     17,6 SE 2,7 19,3 0,0  
20-03-2017 7,3     13,9     19,4 ESE 2,6 19,3 0,0  
19-03-2017 8,9     14,6     20,9 W 2,7 16,1 0,0  
18-03-2017 8,2     14,9     21,6 W 5,0 19,3 0,0  
17-03-2017 7,1     12,7     18,8 W 6,0 22,5 0,0  
16-03-2017 7,2     12,5     18,5 W 3,4 19,3 0,0  
15-03-2017 7,9     12,7     18,2 W 3,1 22,5 0,0  
14-03-2017 8,7     13,7     19,3 N 3,4 24,1 0,0  
13-03-2017 7,1     10,8     13,9 NNW 9,5 48,3 8,4  
12-03-2017 8,9     15,3     21,2 NNW 12,9 49,9 3,8  
11-03-2017 8,6     14,1     19,8 ESE 1,4 12,9 0,0  
10-03-2017 12,3     18,7     23,3 SE 5,0 25,7 0,0  
09-03-2017 13,2     19,7     25,9 W 4,3 20,9 0,0  
08-03-2017 13,1     16,4     20,3 NNW 11,3 77,2 0,0  
07-03-2017 13,2     16,9     20,9 NNW 16,1 64,4 0,0  
06-03-2017 11,7     16,5     21,3 WNW 7,1 51,5 0,0  
05-03-2017 7,1     12,8     19,1 W 3,5 22,5 0,0  
04-03-2017 6,8     10,6     15,2 W 10,0 64,4 1,6  
03-03-2017 5,9     10,3     14,6 SE 5,8 48,3 9,2  
02-03-2017 7,3     12,0     17,3 SE 3,7 20,9 0,0  
01-03-2017 7,8     11,8     16,3 W 5,8 29,0 0,0  
28-02-2017 10,2     13,7     18,1 W 8,2 48,3 0,0  
27-02-2017 6,2     11,3     17,4 W 3,1 25,7 0,2  
26-02-2017 5,2     10,4     15,3 W 3,7 19,3 0,0  
25-02-2017 6,7     9,9     13,7 W 4,3 33,8 0,0  
24-02-2017 9,3     12,2     15,2 NNW 9,2 48,3 2,6  
23-02-2017 10,0     13,2     19,3 W 3,1 20,9 0,0  
22-02-2017 7,1     12,2     18,8 W 4,0 19,3 0,0  
Dades del mes en curs (actualitzades fins l'últim dia disponible)
03/2017 4,9 8,5 13,2 13,5 12,0 18,6 25,9   5,7 77,2 23,0  
Últimes dades mensuals
02/2017 3,9 7,4 10,3 11,1 11,3 15,6 20,0 6,2 104,6 20,8 10
01/2017 -0,2 5,0 9,5 8,4 6,6 12,2 18,0 8,4 78,9 109,2 9
12/2016 1,0 7,0 12,3 10,1 9,7 14,4 17,2 4,4 64,4 84,0 10
11/2016 5,1 9,6 13,3 12,8 12,2 16,6 24,4 5,0 78,9 78,4 10
10/2016 11,1 14,5 17,6 17,9 16,3 22,1 25,9 3,1 40,2 14,8 10
09/2016 12,9 17,7 24,2 22,2 21,6 27,2 37,6 5,8 59,5 82,6 5
08/2016 16,3 19,6 22,3 24,3 25,4 29,2 33,6 5,7 53,1 6,0 3
07/2016 15,9 19,7 22,7 24,7 25,3 29,7 34,2 6,1 51,5 0,8 2
06/2016 13,6 17,1 22,3 21,7 17,7 26,8 31,8 6,7 66,0 4,4 6
Dades de l'any en curs (actualitzades fins l'últim dia disponible)
2017 -0,2 6,9 13,2 10,8 6,6 15,2 25,9   6,9 104,6 153,0  
Últimes dades anuals